sensor_id;sensor_type;location;lat;lon;timestamp;P1;durP1;ratioP1;P2;durP2;ratioP2
9370;SDS011;4725;48.384;8.984;2023-06-26T00:00:45;10.68;;;9.40;;
9370;SDS011;4725;48.384;8.984;2023-06-26T00:03:13;11.00;;;9.20;;
9370;SDS011;4725;48.384;8.984;2023-06-26T00:05:40;7.97;;;7.28;;
9370;SDS011;4725;48.384;8.984;2023-06-26T00:08:07;8.00;;;6.35;;
9370;SDS011;4725;48.384;8.984;2023-06-26T00:10:34;6.97;;;6.28;;
9370;SDS011;4725;48.384;8.984;2023-06-26T00:13:01;7.60;;;6.72;;
9370;SDS011;4725;48.384;8.984;2023-06-26T00:15:28;7.38;;;6.68;;
9370;SDS011;4725;48.384;8.984;2023-06-26T00:17:57;7.80;;;6.55;;
9370;SDS011;4725;48.384;8.984;2023-06-26T00:20:24;7.35;;;6.53;;
9370;SDS011;4725;48.384;8.984;2023-06-26T00:22:51;7.25;;;6.45;;
9370;SDS011;4725;48.384;8.984;2023-06-26T00:25:18;6.85;;;6.15;;
9370;SDS011;4725;48.384;8.984;2023-06-26T00:27:46;9.13;;;5.82;;
9370;SDS011;4725;48.384;8.984;2023-06-26T00:30:12;12.25;;;6.15;;
9370;SDS011;4725;48.384;8.984;2023-06-26T00:32:39;8.88;;;6.82;;
9370;SDS011;4725;48.384;8.984;2023-06-26T00:35:08;7.30;;;6.10;;
9370;SDS011;4725;48.384;8.984;2023-06-26T00:37:34;6.72;;;6.03;;
9370;SDS011;4725;48.384;8.984;2023-06-26T00:40:01;8.43;;;6.40;;
9370;SDS011;4725;48.384;8.984;2023-06-26T00:42:30;12.77;;;6.40;;
9370;SDS011;4725;48.384;8.984;2023-06-26T00:44:57;8.63;;;5.90;;
9370;SDS011;4725;48.384;8.984;2023-06-26T00:47:23;7.63;;;6.78;;
9370;SDS011;4725;48.384;8.984;2023-06-26T00:49:51;7.07;;;6.35;;
9370;SDS011;4725;48.384;8.984;2023-06-26T00:52:19;10.30;;;6.30;;
9370;SDS011;4725;48.384;8.984;2023-06-26T00:54:46;6.50;;;5.90;;
9370;SDS011;4725;48.384;8.984;2023-06-26T00:57:16;7.38;;;6.40;;
9370;SDS011;4725;48.384;8.984;2023-06-26T00:59:44;8.00;;;6.60;;
9370;SDS011;4725;48.384;8.984;2023-06-26T01:02:10;7.40;;;6.03;;
9370;SDS011;4725;48.384;8.984;2023-06-26T01:04:37;7.47;;;6.07;;
9370;SDS011;4725;48.384;8.984;2023-06-26T01:07:11;7.53;;;6.03;;
9370;SDS011;4725;48.384;8.984;2023-06-26T01:09:40;6.63;;;5.95;;
9370;SDS011;4725;48.384;8.984;2023-06-26T01:12:08;6.85;;;6.05;;
9370;SDS011;4725;48.384;8.984;2023-06-26T01:14:35;6.97;;;6.28;;
9370;SDS011;4725;48.384;8.984;2023-06-26T01:17:02;6.85;;;6.15;;
9370;SDS011;4725;48.384;8.984;2023-06-26T01:19:30;7.78;;;6.40;;
9370;SDS011;4725;48.384;8.984;2023-06-26T01:22:00;6.40;;;5.80;;
9370;SDS011;4725;48.384;8.984;2023-06-26T01:24:42;9.50;;;5.95;;
9370;SDS011;4725;48.384;8.984;2023-06-26T01:27:20;7.00;;;6.28;;
9370;SDS011;4725;48.384;8.984;2023-06-26T01:29:49;7.53;;;6.70;;
9370;SDS011;4725;48.384;8.984;2023-06-26T01:32:17;8.35;;;6.43;;
9370;SDS011;4725;48.384;8.984;2023-06-26T01:34:45;7.22;;;6.53;;
9370;SDS011;4725;48.384;8.984;2023-06-26T01:37:12;6.50;;;5.90;;
9370;SDS011;4725;48.384;8.984;2023-06-26T01:39:38;6.55;;;5.95;;
9370;SDS011;4725;48.384;8.984;2023-06-26T01:42:05;6.55;;;5.75;;
9370;SDS011;4725;48.384;8.984;2023-06-26T01:44:35;7.75;;;6.15;;
9370;SDS011;4725;48.384;8.984;2023-06-26T01:47:06;6.18;;;5.57;;
9370;SDS011;4725;48.384;8.984;2023-06-26T01:49:38;6.93;;;6.13;;
9370;SDS011;4725;48.384;8.984;2023-06-26T01:52:14;7.68;;;6.22;;
9370;SDS011;4725;48.384;8.984;2023-06-26T01:54:49;6.40;;;5.70;;
9370;SDS011;4725;48.384;8.984;2023-06-26T01:57:21;7.90;;;6.15;;
9370;SDS011;4725;48.384;8.984;2023-06-26T01:59:54;7.30;;;6.57;;
9370;SDS011;4725;48.384;8.984;2023-06-26T02:02:22;7.20;;;6.43;;
9370;SDS011;4725;48.384;8.984;2023-06-26T02:04:50;5.97;;;5.38;;
9370;SDS011;4725;48.384;8.984;2023-06-26T02:07:17;6.38;;;5.75;;
9370;SDS011;4725;48.384;8.984;2023-06-26T02:09:44;7.65;;;5.90;;
9370;SDS011;4725;48.384;8.984;2023-06-26T02:12:11;7.28;;;6.00;;
9370;SDS011;4725;48.384;8.984;2023-06-26T02:14:37;7.13;;;6.13;;
9370;SDS011;4725;48.384;8.984;2023-06-26T02:17:06;6.50;;;5.90;;
9370;SDS011;4725;48.384;8.984;2023-06-26T02:19:33;8.38;;;6.75;;
9370;SDS011;4725;48.384;8.984;2023-06-26T02:22:01;7.10;;;6.20;;
9370;SDS011;4725;48.384;8.984;2023-06-26T02:24:28;7.47;;;6.22;;
9370;SDS011;4725;48.384;8.984;2023-06-26T02:26:55;6.88;;;6.10;;
9370;SDS011;4725;48.384;8.984;2023-06-26T02:29:22;6.50;;;5.55;;
9370;SDS011;4725;48.384;8.984;2023-06-26T02:31:49;6.03;;;5.25;;
9370;SDS011;4725;48.384;8.984;2023-06-26T02:34:17;5.70;;;5.10;;
9370;SDS011;4725;48.384;8.984;2023-06-26T02:36:44;8.75;;;6.47;;
9370;SDS011;4725;48.384;8.984;2023-06-26T02:39:11;6.88;;;6.18;;
9370;SDS011;4725;48.384;8.984;2023-06-26T02:41:40;6.05;;;5.45;;
9370;SDS011;4725;48.384;8.984;2023-06-26T02:44:08;8.57;;;5.82;;
9370;SDS011;4725;48.384;8.984;2023-06-26T02:46:36;6.50;;;5.80;;
9370;SDS011;4725;48.384;8.984;2023-06-26T02:49:03;7.07;;;6.03;;
9370;SDS011;4725;48.384;8.984;2023-06-26T02:51:32;6.03;;;5.43;;
9370;SDS011;4725;48.384;8.984;2023-06-26T02:54:00;7.85;;;6.32;;
9370;SDS011;4725;48.384;8.984;2023-06-26T02:56:27;10.45;;;6.25;;
9370;SDS011;4725;48.384;8.984;2023-06-26T02:58:54;6.82;;;6.13;;
9370;SDS011;4725;48.384;8.984;2023-06-26T03:01:21;8.73;;;6.75;;
9370;SDS011;4725;48.384;8.984;2023-06-26T03:03:48;6.85;;;6.15;;
9370;SDS011;4725;48.384;8.984;2023-06-26T03:06:15;7.60;;;6.50;;
9370;SDS011;4725;48.384;8.984;2023-06-26T03:08:43;6.65;;;5.95;;
9370;SDS011;4725;48.384;8.984;2023-06-26T03:11:10;7.32;;;6.03;;
9370;SDS011;4725;48.384;8.984;2023-06-26T03:13:37;6.70;;;6.00;;
9370;SDS011;4725;48.384;8.984;2023-06-26T03:16:04;6.47;;;5.88;;
9370;SDS011;4725;48.384;8.984;2023-06-26T03:18:31;9.07;;;6.10;;
9370;SDS011;4725;48.384;8.984;2023-06-26T03:20:58;7.30;;;6.30;;
9370;SDS011;4725;48.384;8.984;2023-06-26T03:23:26;7.75;;;6.60;;
9370;SDS011;4725;48.384;8.984;2023-06-26T03:25:54;7.68;;;5.75;;
9370;SDS011;4725;48.384;8.984;2023-06-26T03:28:21;7.85;;;6.47;;
9370;SDS011;4725;48.384;8.984;2023-06-26T03:30:47;7.65;;;6.38;;
9370;SDS011;4725;48.384;8.984;2023-06-26T03:33:14;6.68;;;5.95;;
9370;SDS011;4725;48.384;8.984;2023-06-26T03:35:41;7.00;;;6.28;;
9370;SDS011;4725;48.384;8.984;2023-06-26T03:38:08;8.20;;;6.15;;
9370;SDS011;4725;48.384;8.984;2023-06-26T03:40:35;6.38;;;5.78;;
9370;SDS011;4725;48.384;8.984;2023-06-26T03:43:03;7.25;;;5.78;;
9370;SDS011;4725;48.384;8.984;2023-06-26T03:45:30;7.07;;;6.28;;
9370;SDS011;4725;48.384;8.984;2023-06-26T03:47:57;8.55;;;5.90;;
9370;SDS011;4725;48.384;8.984;2023-06-26T03:50:23;7.05;;;6.32;;
9370;SDS011;4725;48.384;8.984;2023-06-26T03:52:50;7.57;;;6.13;;
9370;SDS011;4725;48.384;8.984;2023-06-26T03:55:19;7.45;;;6.10;;
9370;SDS011;4725;48.384;8.984;2023-06-26T03:57:47;5.75;;;5.15;;
9370;SDS011;4725;48.384;8.984;2023-06-26T04:00:16;9.80;;;5.60;;
9370;SDS011;4725;48.384;8.984;2023-06-26T04:02:43;6.53;;;5.70;;
9370;SDS011;4725;48.384;8.984;2023-06-26T04:05:10;6.43;;;5.72;;
9370;SDS011;4725;48.384;8.984;2023-06-26T04:07:37;6.75;;;6.03;;
9370;SDS011;4725;48.384;8.984;2023-06-26T04:10:04;6.32;;;5.43;;
9370;SDS011;4725;48.384;8.984;2023-06-26T04:12:32;8.52;;;5.65;;
9370;SDS011;4725;48.384;8.984;2023-06-26T04:14:58;6.47;;;5.75;;
9370;SDS011;4725;48.384;8.984;2023-06-26T04:17:27;7.00;;;5.93;;
9370;SDS011;4725;48.384;8.984;2023-06-26T04:19:53;5.75;;;5.25;;
9370;SDS011;4725;48.384;8.984;2023-06-26T04:22:21;6.38;;;5.78;;
9370;SDS011;4725;48.384;8.984;2023-06-26T04:24:48;7.75;;;5.93;;
9370;SDS011;4725;48.384;8.984;2023-06-26T04:27:14;6.97;;;6.00;;
9370;SDS011;4725;48.384;8.984;2023-06-26T04:29:41;7.88;;;5.88;;
9370;SDS011;4725;48.384;8.984;2023-06-26T04:32:08;5.70;;;5.15;;
9370;SDS011;4725;48.384;8.984;2023-06-26T04:34:37;7.13;;;6.22;;
9370;SDS011;4725;48.384;8.984;2023-06-26T04:37:06;6.60;;;5.78;;
9370;SDS011;4725;48.384;8.984;2023-06-26T04:39:34;6.95;;;6.00;;
9370;SDS011;4725;48.384;8.984;2023-06-26T04:42:03;6.20;;;5.47;;
9370;SDS011;4725;48.384;8.984;2023-06-26T04:44:30;10.05;;;5.68;;
9370;SDS011;4725;48.384;8.984;2023-06-26T04:46:57;7.43;;;6.07;;
9370;SDS011;4725;48.384;8.984;2023-06-26T04:49:24;5.50;;;4.95;;
9370;SDS011;4725;48.384;8.984;2023-06-26T04:51:54;7.90;;;6.68;;
9370;SDS011;4725;48.384;8.984;2023-06-26T04:54:21;6.13;;;5.45;;
9370;SDS011;4725;48.384;8.984;2023-06-26T04:56:48;10.82;;;5.68;;
9370;SDS011;4725;48.384;8.984;2023-06-26T04:59:15;5.82;;;5.32;;
9370;SDS011;4725;48.384;8.984;2023-06-26T05:01:42;9.00;;;5.90;;
9370;SDS011;4725;48.384;8.984;2023-06-26T05:04:13;6.30;;;5.70;;
9370;SDS011;4725;48.384;8.984;2023-06-26T05:06:40;8.10;;;5.53;;
9370;SDS011;4725;48.384;8.984;2023-06-26T05:09:08;9.13;;;6.22;;
9370;SDS011;4725;48.384;8.984;2023-06-26T05:11:35;9.98;;;5.57;;
9370;SDS011;4725;48.384;8.984;2023-06-26T05:14:02;5.88;;;5.30;;
9370;SDS011;4725;48.384;8.984;2023-06-26T05:16:32;11.13;;;6.13;;
9370;SDS011;4725;48.384;8.984;2023-06-26T05:18:59;6.38;;;5.75;;
9370;SDS011;4725;48.384;8.984;2023-06-26T05:21:27;8.25;;;5.80;;
9370;SDS011;4725;48.384;8.984;2023-06-26T05:23:55;11.85;;;5.68;;
9370;SDS011;4725;48.384;8.984;2023-06-26T05:26:25;7.43;;;5.80;;
9370;SDS011;4725;48.384;8.984;2023-06-26T05:28:52;6.43;;;5.80;;
9370;SDS011;4725;48.384;8.984;2023-06-26T05:31:20;9.57;;;5.70;;
9370;SDS011;4725;48.384;8.984;2023-06-26T05:33:47;9.75;;;5.75;;
9370;SDS011;4725;48.384;8.984;2023-06-26T05:36:15;5.85;;;5.25;;
9370;SDS011;4725;48.384;8.984;2023-06-26T05:38:44;10.52;;;6.10;;
9370;SDS011;4725;48.384;8.984;2023-06-26T05:41:11;6.80;;;5.93;;
9370;SDS011;4725;48.384;8.984;2023-06-26T05:43:40;6.28;;;5.68;;
9370;SDS011;4725;48.384;8.984;2023-06-26T05:46:07;8.50;;;5.18;;
9370;SDS011;4725;48.384;8.984;2023-06-26T05:48:33;6.20;;;5.60;;
9370;SDS011;4725;48.384;8.984;2023-06-26T05:51:00;8.50;;;6.10;;
9370;SDS011;4725;48.384;8.984;2023-06-26T05:53:29;9.25;;;6.22;;
9370;SDS011;4725;48.384;8.984;2023-06-26T05:55:56;6.15;;;5.40;;
9370;SDS011;4725;48.384;8.984;2023-06-26T05:58:24;6.32;;;5.68;;
9370;SDS011;4725;48.384;8.984;2023-06-26T06:00:54;11.00;;;5.57;;
9370;SDS011;4725;48.384;8.984;2023-06-26T06:03:21;8.85;;;5.82;;
9370;SDS011;4725;48.384;8.984;2023-06-26T06:05:49;9.65;;;5.18;;
9370;SDS011;4725;48.384;8.984;2023-06-26T06:08:15;11.63;;;5.93;;
9370;SDS011;4725;48.384;8.984;2023-06-26T06:10:42;10.48;;;6.03;;
9370;SDS011;4725;48.384;8.984;2023-06-26T06:13:09;6.63;;;5.93;;
9370;SDS011;4725;48.384;8.984;2023-06-26T06:15:36;11.18;;;5.38;;
9370;SDS011;4725;48.384;8.984;2023-06-26T06:18:04;7.72;;;5.80;;
9370;SDS011;4725;48.384;8.984;2023-06-26T06:20:31;7.40;;;5.50;;
9370;SDS011;4725;48.384;8.984;2023-06-26T06:22:58;5.63;;;4.97;;
9370;SDS011;4725;48.384;8.984;2023-06-26T06:25:25;5.95;;;5.35;;
9370;SDS011;4725;48.384;8.984;2023-06-26T06:27:52;5.57;;;4.97;;
9370;SDS011;4725;48.384;8.984;2023-06-26T06:30:18;6.07;;;5.40;;
9370;SDS011;4725;48.384;8.984;2023-06-26T06:32:45;5.90;;;5.40;;
9370;SDS011;4725;48.384;8.984;2023-06-26T06:35:16;13.43;;;5.57;;
9370;SDS011;4725;48.384;8.984;2023-06-26T06:37:43;5.40;;;4.88;;
9370;SDS011;4725;48.384;8.984;2023-06-26T06:40:11;6.63;;;5.70;;
9370;SDS011;4725;48.384;8.984;2023-06-26T06:42:38;8.13;;;5.05;;
9370;SDS011;4725;48.384;8.984;2023-06-26T06:45:05;5.82;;;5.22;;
9370;SDS011;4725;48.384;8.984;2023-06-26T06:47:33;7.28;;;4.68;;
9370;SDS011;4725;48.384;8.984;2023-06-26T06:50:00;7.43;;;5.13;;
9370;SDS011;4725;48.384;8.984;2023-06-26T06:52:34;5.78;;;5.22;;
9370;SDS011;4725;48.384;8.984;2023-06-26T06:55:02;5.45;;;4.95;;
9370;SDS011;4725;48.384;8.984;2023-06-26T06:57:30;6.07;;;4.93;;
9370;SDS011;4725;48.384;8.984;2023-06-26T07:00:00;6.40;;;5.28;;
9370;SDS011;4725;48.384;8.984;2023-06-26T07:02:28;7.97;;;4.30;;
9370;SDS011;4725;48.384;8.984;2023-06-26T07:04:55;7.18;;;4.82;;
9370;SDS011;4725;48.384;8.984;2023-06-26T07:07:22;6.40;;;5.13;;
9370;SDS011;4725;48.384;8.984;2023-06-26T07:09:50;6.05;;;4.63;;
9370;SDS011;4725;48.384;8.984;2023-06-26T07:12:17;5.07;;;4.57;;
9370;SDS011;4725;48.384;8.984;2023-06-26T07:14:44;6.45;;;5.78;;
9370;SDS011;4725;48.384;8.984;2023-06-26T07:17:10;5.07;;;4.68;;
9370;SDS011;4725;48.384;8.984;2023-06-26T07:19:37;5.45;;;4.90;;
9370;SDS011;4725;48.384;8.984;2023-06-26T07:22:04;6.13;;;5.15;;
9370;SDS011;4725;48.384;8.984;2023-06-26T07:24:31;8.27;;;5.10;;
9370;SDS011;4725;48.384;8.984;2023-06-26T07:27:00;10.27;;;4.28;;
9370;SDS011;4725;48.384;8.984;2023-06-26T07:29:27;5.60;;;5.10;;
9370;SDS011;4725;48.384;8.984;2023-06-26T07:31:53;12.85;;;5.20;;
9370;SDS011;4725;48.384;8.984;2023-06-26T07:34:20;7.88;;;5.10;;
9370;SDS011;4725;48.384;8.984;2023-06-26T07:36:47;5.40;;;4.70;;
9370;SDS011;4725;48.384;8.984;2023-06-26T07:39:14;4.80;;;4.40;;
9370;SDS011;4725;48.384;8.984;2023-06-26T07:41:41;5.75;;;5.07;;
9370;SDS011;4725;48.384;8.984;2023-06-26T07:44:09;7.32;;;5.05;;
9370;SDS011;4725;48.384;8.984;2023-06-26T07:46:36;8.20;;;4.97;;
9370;SDS011;4725;48.384;8.984;2023-06-26T07:49:03;5.18;;;4.72;;
9370;SDS011;4725;48.384;8.984;2023-06-26T07:51:30;6.72;;;5.05;;
9370;SDS011;4725;48.384;8.984;2023-06-26T07:53:56;5.82;;;5.32;;
9370;SDS011;4725;48.384;8.984;2023-06-26T07:56:23;8.10;;;4.65;;
9370;SDS011;4725;48.384;8.984;2023-06-26T07:58:50;4.65;;;4.25;;
9370;SDS011;4725;48.384;8.984;2023-06-26T08:01:19;8.13;;;4.88;;
9370;SDS011;4725;48.384;8.984;2023-06-26T08:03:46;5.00;;;4.60;;
9370;SDS011;4725;48.384;8.984;2023-06-26T08:06:13;5.03;;;4.25;;
9370;SDS011;4725;48.384;8.984;2023-06-26T08:08:39;5.38;;;4.53;;
9370;SDS011;4725;48.384;8.984;2023-06-26T08:11:06;4.82;;;4.32;;
9370;SDS011;4725;48.384;8.984;2023-06-26T08:13:33;4.80;;;4.25;;
9370;SDS011;4725;48.384;8.984;2023-06-26T08:16:00;5.55;;;4.53;;
9370;SDS011;4725;48.384;8.984;2023-06-26T08:18:28;4.60;;;4.20;;
9370;SDS011;4725;48.384;8.984;2023-06-26T08:20:55;5.05;;;4.63;;
9370;SDS011;4725;48.384;8.984;2023-06-26T08:23:22;5.30;;;4.85;;
9370;SDS011;4725;48.384;8.984;2023-06-26T08:25:49;5.03;;;4.63;;
9370;SDS011;4725;48.384;8.984;2023-06-26T08:28:16;7.57;;;4.47;;
9370;SDS011;4725;48.384;8.984;2023-06-26T08:30:43;4.45;;;4.15;;
9370;SDS011;4725;48.384;8.984;2023-06-26T08:33:10;9.18;;;5.00;;
9370;SDS011;4725;48.384;8.984;2023-06-26T08:35:38;4.57;;;4.00;;
9370;SDS011;4725;48.384;8.984;2023-06-26T08:38:05;6.28;;;4.18;;
9370;SDS011;4725;48.384;8.984;2023-06-26T08:40:34;8.07;;;4.57;;
9370;SDS011;4725;48.384;8.984;2023-06-26T08:43:01;5.43;;;4.22;;
9370;SDS011;4725;48.384;8.984;2023-06-26T08:45:29;5.57;;;5.00;;
9370;SDS011;4725;48.384;8.984;2023-06-26T08:47:56;6.78;;;4.78;;
9370;SDS011;4725;48.384;8.984;2023-06-26T08:50:26;6.75;;;4.57;;
9370;SDS011;4725;48.384;8.984;2023-06-26T08:52:58;9.10;;;5.22;;
9370;SDS011;4725;48.384;8.984;2023-06-26T08:55:32;6.82;;;4.72;;
9370;SDS011;4725;48.384;8.984;2023-06-26T08:58:01;4.88;;;4.43;;
9370;SDS011;4725;48.384;8.984;2023-06-26T09:00:28;6.10;;;4.78;;
9370;SDS011;4725;48.384;8.984;2023-06-26T09:02:56;5.15;;;4.65;;
9370;SDS011;4725;48.384;8.984;2023-06-26T09:05:23;5.68;;;5.18;;
9370;SDS011;4725;48.384;8.984;2023-06-26T09:07:49;4.90;;;4.50;;
9370;SDS011;4725;48.384;8.984;2023-06-26T09:10:21;6.18;;;4.60;;
9370;SDS011;4725;48.384;8.984;2023-06-26T09:12:48;4.95;;;4.55;;
9370;SDS011;4725;48.384;8.984;2023-06-26T09:15:16;4.90;;;4.40;;
9370;SDS011;4725;48.384;8.984;2023-06-26T09:17:45;4.57;;;4.20;;
9370;SDS011;4725;48.384;8.984;2023-06-26T09:20:14;5.13;;;4.63;;
9370;SDS011;4725;48.384;8.984;2023-06-26T09:22:41;6.10;;;4.68;;
9370;SDS011;4725;48.384;8.984;2023-06-26T09:25:09;5.13;;;4.60;;
9370;SDS011;4725;48.384;8.984;2023-06-26T09:27:37;6.32;;;4.97;;
9370;SDS011;4725;48.384;8.984;2023-06-26T09:30:06;6.05;;;5.00;;
9370;SDS011;4725;48.384;8.984;2023-06-26T09:32:34;4.70;;;4.30;;
9370;SDS011;4725;48.384;8.984;2023-06-26T09:35:02;4.95;;;4.32;;
9370;SDS011;4725;48.384;8.984;2023-06-26T09:37:30;5.22;;;4.75;;
9370;SDS011;4725;48.384;8.984;2023-06-26T09:39:56;5.03;;;4.55;;
9370;SDS011;4725;48.384;8.984;2023-06-26T09:42:24;5.03;;;4.60;;
9370;SDS011;4725;48.384;8.984;2023-06-26T09:44:52;4.68;;;4.28;;
9370;SDS011;4725;48.384;8.984;2023-06-26T09:47:20;4.78;;;4.38;;
9370;SDS011;4725;48.384;8.984;2023-06-26T09:49:47;6.32;;;4.65;;
9370;SDS011;4725;48.384;8.984;2023-06-26T09:52:15;5.43;;;4.93;;
9370;SDS011;4725;48.384;8.984;2023-06-26T09:54:43;5.10;;;4.60;;
9370;SDS011;4725;48.384;8.984;2023-06-26T09:57:11;5.28;;;4.88;;
9370;SDS011;4725;48.384;8.984;2023-06-26T09:59:39;5.45;;;4.95;;
9370;SDS011;4725;48.384;8.984;2023-06-26T10:02:08;7.72;;;4.88;;
9370;SDS011;4725;48.384;8.984;2023-06-26T10:04:36;7.13;;;4.72;;
9370;SDS011;4725;48.384;8.984;2023-06-26T10:07:04;5.00;;;4.60;;
9370;SDS011;4725;48.384;8.984;2023-06-26T10:09:32;5.18;;;4.78;;
9370;SDS011;4725;48.384;8.984;2023-06-26T10:12:01;5.25;;;4.80;;
9370;SDS011;4725;48.384;8.984;2023-06-26T10:14:31;4.85;;;4.45;;
9370;SDS011;4725;48.384;8.984;2023-06-26T10:17:01;5.20;;;4.70;;
9370;SDS011;4725;48.384;8.984;2023-06-26T10:19:33;5.28;;;4.78;;
9370;SDS011;4725;48.384;8.984;2023-06-26T10:22:02;5.55;;;5.05;;
9370;SDS011;4725;48.384;8.984;2023-06-26T10:24:31;4.53;;;4.22;;
9370;SDS011;4725;48.384;8.984;2023-06-26T10:27:02;5.70;;;5.20;;
9370;SDS011;4725;48.384;8.984;2023-06-26T10:29:34;4.78;;;4.38;;
9370;SDS011;4725;48.384;8.984;2023-06-26T10:32:02;5.65;;;5.05;;
9370;SDS011;4725;48.384;8.984;2023-06-26T10:34:31;9.77;;;5.35;;
9370;SDS011;4725;48.384;8.984;2023-06-26T10:37:00;6.40;;;4.63;;
9370;SDS011;4725;48.384;8.984;2023-06-26T10:39:32;6.15;;;5.00;;
9370;SDS011;4725;48.384;8.984;2023-06-26T10:42:13;5.35;;;4.85;;
9370;SDS011;4725;48.384;8.984;2023-06-26T10:44:41;6.70;;;5.13;;
9370;SDS011;4725;48.384;8.984;2023-06-26T10:47:08;5.82;;;5.32;;
9370;SDS011;4725;48.384;8.984;2023-06-26T10:49:37;5.38;;;4.57;;
9370;SDS011;4725;48.384;8.984;2023-06-26T10:52:05;6.28;;;5.68;;
9370;SDS011;4725;48.384;8.984;2023-06-26T10:54:32;7.32;;;5.38;;
9370;SDS011;4725;48.384;8.984;2023-06-26T10:56:59;5.88;;;5.25;;
9370;SDS011;4725;48.384;8.984;2023-06-26T10:59:29;5.90;;;5.35;;
9370;SDS011;4725;48.384;8.984;2023-06-26T11:01:57;5.55;;;5.07;;
9370;SDS011;4725;48.384;8.984;2023-06-26T11:04:39;5.53;;;5.00;;
9370;SDS011;4725;48.384;8.984;2023-06-26T11:07:17;5.35;;;4.95;;
9370;SDS011;4725;48.384;8.984;2023-06-26T11:09:58;6.57;;;5.93;;
9370;SDS011;4725;48.384;8.984;2023-06-26T11:12:33;6.72;;;5.25;;
9370;SDS011;4725;48.384;8.984;2023-06-26T11:15:01;8.32;;;5.78;;
9370;SDS011;4725;48.384;8.984;2023-06-26T11:17:29;6.03;;;5.47;;
9370;SDS011;4725;48.384;8.984;2023-06-26T11:19:57;5.43;;;4.93;;
9370;SDS011;4725;48.384;8.984;2023-06-26T11:22:25;5.88;;;5.03;;
9370;SDS011;4725;48.384;8.984;2023-06-26T11:24:53;6.82;;;5.45;;
9370;SDS011;4725;48.384;8.984;2023-06-26T11:27:20;5.82;;;5.32;;
9370;SDS011;4725;48.384;8.984;2023-06-26T11:29:49;6.40;;;4.55;;
9370;SDS011;4725;48.384;8.984;2023-06-26T11:32:16;5.07;;;4.65;;
9370;SDS011;4725;48.384;8.984;2023-06-26T11:34:43;5.47;;;5.03;;
9370;SDS011;4725;48.384;8.984;2023-06-26T11:37:11;7.25;;;4.70;;
9370;SDS011;4725;48.384;8.984;2023-06-26T11:39:38;5.85;;;5.25;;
9370;SDS011;4725;48.384;8.984;2023-06-26T11:42:05;5.30;;;4.90;;
9370;SDS011;4725;48.384;8.984;2023-06-26T11:44:32;6.25;;;4.82;;
9370;SDS011;4725;48.384;8.984;2023-06-26T11:47:07;4.97;;;4.68;;
9370;SDS011;4725;48.384;8.984;2023-06-26T11:49:38;5.80;;;4.88;;
9370;SDS011;4725;48.384;8.984;2023-06-26T11:52:07;4.55;;;4.25;;
9370;SDS011;4725;48.384;8.984;2023-06-26T11:54:36;5.40;;;4.78;;
9370;SDS011;4725;48.384;8.984;2023-06-26T11:57:04;7.22;;;4.82;;
9370;SDS011;4725;48.384;8.984;2023-06-26T11:59:33;5.20;;;4.78;;
9370;SDS011;4725;48.384;8.984;2023-06-26T12:02:04;5.30;;;4.80;;
9370;SDS011;4725;48.384;8.984;2023-06-26T12:04:32;5.10;;;4.70;;
9370;SDS011;4725;48.384;8.984;2023-06-26T12:07:00;5.45;;;4.95;;
9370;SDS011;4725;48.384;8.984;2023-06-26T12:09:29;5.88;;;4.80;;
9370;SDS011;4725;48.384;8.984;2023-06-26T12:11:59;6.30;;;4.55;;
9370;SDS011;4725;48.384;8.984;2023-06-26T12:14:27;5.70;;;5.20;;
9370;SDS011;4725;48.384;8.984;2023-06-26T12:16:54;5.18;;;4.78;;
9370;SDS011;4725;48.384;8.984;2023-06-26T12:19:24;5.47;;;4.97;;
9370;SDS011;4725;48.384;8.984;2023-06-26T12:21:52;5.97;;;5.05;;
9370;SDS011;4725;48.384;8.984;2023-06-26T12:24:21;5.80;;;5.22;;
9370;SDS011;4725;48.384;8.984;2023-06-26T12:26:50;5.65;;;5.13;;
9370;SDS011;4725;48.384;8.984;2023-06-26T12:29:20;7.22;;;4.95;;
9370;SDS011;4725;48.384;8.984;2023-06-26T12:31:51;5.50;;;5.00;;
9370;SDS011;4725;48.384;8.984;2023-06-26T12:34:19;5.63;;;5.13;;
9370;SDS011;4725;48.384;8.984;2023-06-26T12:36:50;5.75;;;4.97;;
9370;SDS011;4725;48.384;8.984;2023-06-26T12:39:18;5.97;;;5.47;;
9370;SDS011;4725;48.384;8.984;2023-06-26T12:41:47;5.30;;;4.72;;
9370;SDS011;4725;48.384;8.984;2023-06-26T12:44:18;6.78;;;5.15;;
9370;SDS011;4725;48.384;8.984;2023-06-26T12:46:53;5.40;;;4.90;;
9370;SDS011;4725;48.384;8.984;2023-06-26T12:49:28;5.97;;;5.00;;
9370;SDS011;4725;48.384;8.984;2023-06-26T12:51:57;6.72;;;5.10;;
9370;SDS011;4725;48.384;8.984;2023-06-26T12:54:24;6.40;;;5.60;;
9370;SDS011;4725;48.384;8.984;2023-06-26T12:56:51;8.40;;;5.80;;
9370;SDS011;4725;48.384;8.984;2023-06-26T12:59:18;8.80;;;5.90;;
9370;SDS011;4725;48.384;8.984;2023-06-26T13:01:46;6.25;;;5.65;;
9370;SDS011;4725;48.384;8.984;2023-06-26T13:04:13;7.57;;;5.55;;
9370;SDS011;4725;48.384;8.984;2023-06-26T13:06:42;6.20;;;5.53;;
9370;SDS011;4725;48.384;8.984;2023-06-26T13:09:09;6.32;;;5.82;;
9370;SDS011;4725;48.384;8.984;2023-06-26T13:11:36;5.70;;;5.30;;
9370;SDS011;4725;48.384;8.984;2023-06-26T13:14:03;6.55;;;5.25;;
9370;SDS011;4725;48.384;8.984;2023-06-26T13:16:30;7.95;;;5.45;;
9370;SDS011;4725;48.384;8.984;2023-06-26T13:18:59;7.65;;;5.10;;
9370;SDS011;4725;48.384;8.984;2023-06-26T13:21:26;5.40;;;4.90;;
9370;SDS011;4725;48.384;8.984;2023-06-26T13:23:53;6.63;;;5.05;;
9370;SDS011;4725;48.384;8.984;2023-06-26T13:26:20;5.45;;;4.95;;
9370;SDS011;4725;48.384;8.984;2023-06-26T13:28:47;5.43;;;5.03;;
9370;SDS011;4725;48.384;8.984;2023-06-26T13:31:14;5.65;;;5.25;;
9370;SDS011;4725;48.384;8.984;2023-06-26T13:33:41;5.60;;;5.10;;
9370;SDS011;4725;48.384;8.984;2023-06-26T13:36:11;7.40;;;4.75;;
9370;SDS011;4725;48.384;8.984;2023-06-26T13:38:37;5.32;;;4.80;;
9370;SDS011;4725;48.384;8.984;2023-06-26T13:41:04;6.28;;;4.82;;
9370;SDS011;4725;48.384;8.984;2023-06-26T13:43:31;7.15;;;5.47;;
9370;SDS011;4725;48.384;8.984;2023-06-26T13:45:58;7.65;;;5.28;;
9370;SDS011;4725;48.384;8.984;2023-06-26T13:48:25;5.05;;;4.65;;
9370;SDS011;4725;48.384;8.984;2023-06-26T13:50:52;6.82;;;4.97;;
9370;SDS011;4725;48.384;8.984;2023-06-26T13:53:20;5.75;;;5.25;;
9370;SDS011;4725;48.384;8.984;2023-06-26T13:55:47;9.13;;;5.50;;
9370;SDS011;4725;48.384;8.984;2023-06-26T13:58:14;5.97;;;4.80;;
9370;SDS011;4725;48.384;8.984;2023-06-26T14:00:41;5.78;;;5.18;;
9370;SDS011;4725;48.384;8.984;2023-06-26T14:03:10;7.53;;;4.65;;
9370;SDS011;4725;48.384;8.984;2023-06-26T14:05:37;5.70;;;4.55;;
9370;SDS011;4725;48.384;8.984;2023-06-26T14:08:04;5.45;;;4.82;;
9370;SDS011;4725;48.384;8.984;2023-06-26T14:10:34;6.45;;;4.60;;
9370;SDS011;4725;48.384;8.984;2023-06-26T14:13:01;5.20;;;4.72;;
9370;SDS011;4725;48.384;8.984;2023-06-26T14:15:29;5.13;;;4.53;;
9370;SDS011;4725;48.384;8.984;2023-06-26T14:17:56;5.03;;;4.63;;
9370;SDS011;4725;48.384;8.984;2023-06-26T14:20:24;5.28;;;4.78;;
9370;SDS011;4725;48.384;8.984;2023-06-26T14:22:52;5.43;;;4.90;;
9370;SDS011;4725;48.384;8.984;2023-06-26T14:25:19;5.10;;;4.57;;
9370;SDS011;4725;48.384;8.984;2023-06-26T14:27:47;5.20;;;4.70;;
9370;SDS011;4725;48.384;8.984;2023-06-26T14:30:14;6.03;;;4.63;;
9370;SDS011;4725;48.384;8.984;2023-06-26T14:32:41;5.95;;;4.75;;
9370;SDS011;4725;48.384;8.984;2023-06-26T14:35:08;6.35;;;4.65;;
9370;SDS011;4725;48.384;8.984;2023-06-26T14:37:35;5.30;;;4.80;;
9370;SDS011;4725;48.384;8.984;2023-06-26T14:40:04;6.13;;;4.88;;
9370;SDS011;4725;48.384;8.984;2023-06-26T14:42:32;4.97;;;4.57;;
9370;SDS011;4725;48.384;8.984;2023-06-26T14:45:00;6.80;;;4.63;;
9370;SDS011;4725;48.384;8.984;2023-06-26T14:47:28;6.60;;;5.07;;
9370;SDS011;4725;48.384;8.984;2023-06-26T14:49:55;5.53;;;4.85;;
9370;SDS011;4725;48.384;8.984;2023-06-26T14:52:22;5.35;;;4.85;;
9370;SDS011;4725;48.384;8.984;2023-06-26T14:54:48;4.53;;;4.10;;
9370;SDS011;4725;48.384;8.984;2023-06-26T14:57:15;5.07;;;4.35;;
9370;SDS011;4725;48.384;8.984;2023-06-26T14:59:42;4.82;;;4.43;;
9370;SDS011;4725;48.384;8.984;2023-06-26T15:02:10;7.05;;;4.50;;
9370;SDS011;4725;48.384;8.984;2023-06-26T15:04:37;5.78;;;4.55;;
9370;SDS011;4725;48.384;8.984;2023-06-26T15:07:04;7.55;;;5.00;;
9370;SDS011;4725;48.384;8.984;2023-06-26T15:09:31;6.70;;;4.40;;
9370;SDS011;4725;48.384;8.984;2023-06-26T15:11:59;7.05;;;4.60;;
9370;SDS011;4725;48.384;8.984;2023-06-26T15:14:27;6.53;;;5.05;;
9370;SDS011;4725;48.384;8.984;2023-06-26T15:16:54;4.28;;;3.97;;
9370;SDS011;4725;48.384;8.984;2023-06-26T15:19:22;5.45;;;4.75;;